Airfield :
LOGIN :

Register | Disclaimer

   EN    FR    IT 

 










Legend :    VFR   Marginal VFR   IFR   Intensive IFR   Very Intensive IFR
Visi :
Ceiling :
>= 8 km
>= 3000ft
5 to 8 km
1000 to 3000 ft
1500m to 5 km
500 to 1000 ft
800 to 1500m
200 to 500 ft
< 800m
< 200 ft
Symbols :   Thunderstorms  Fog  Heavy snow  Heavy precipitations  Wind > 20 kt
SIGMETs :     Misc.  Thunderstorms  Icing  Turbulence  Mountain Waves  Volcanic Ashes







- Airport Elevation : 100 ft


EBDT - Schaffen

CURRENT METAR :
  • 250625Z 30009KT 9999 FEW025 SCT050 06/03 Q1023 BLU BLU TEMPO WHT

EXPIRED METARs :
  • 250555Z 29009KT 9999 FEW025 BKN050 05/03 Q1023 BLU BLU TEMPO WHT
  • 250525Z 29007KT 9999 FEW025 BKN050 05/03 Q1023 BLU BLU TEMPO WHT
  • 250523Z 29007KT 9999 FEW025 BKN050 05/03 Q1023 BLU BLU TEMPO WHT
  • 250503Z 27006KT 9999 SCT020 BKN060 05/04 Q1023 WHT BLU TEMPO WHT
  • 250452Z 30006KT 9999 SCT020 BKN060 05/04 Q1023 WHT WHT TEMPO GRN
  • 250439Z 32011KT 9999 SCT020 BKN060 05/04 Q1023 WHT BLU TEMPO WHT
  • 250425Z 28007KT 9999 FEW030 BKN060 06/03 Q1023 BLU BLU

TAF TAF EBDT
Valid from the 25 at 07:00 until the 25 at 16:00 UTC


250541Z 2507/2516 30015KT 9999 FEW020 SCT060
TEMPO 2507/2516 32015G25KT 5000 -SHRA FEW012 SCT018 BKN040
PROB30
TEMPO 2507/2513 33017G30KT 2500 SHRA SCT010 BKN016
No reported NOTAMs for that airfield.



MET'MAP, your aeronautical weather chart ! - Copyright ORBIFLY December 2007 - Disclaimer

ORBIFLY MET'MAP TEAM :

Programming & Development : Alexandra Zaïnal
Concept & Development : Baudouin d'Aumeries
Co-Development & Prog : Marc-Olivier Méhu
Technical & hardware support : Manuel Goepfert

Contact : metmap@orbifly.com




SOURCES & CREDITS :

   NOAA